sensor_id;sensor_type;location;lat;lon;timestamp;pressure;altitude;pressure_sealevel;temperature;humidity
34586;BME280;20816;50.950;11.108;2022-12-26T00:01:42;98012.31;;;11.38;100.00
34586;BME280;20816;50.950;11.108;2022-12-26T00:04:10;98007.75;;;11.43;100.00
34586;BME280;20816;50.950;11.108;2022-12-26T00:06:57;98001.09;;;11.33;100.00
34586;BME280;20816;50.950;11.108;2022-12-26T00:09:23;97995.25;;;11.23;100.00
34586;BME280;20816;50.950;11.108;2022-12-26T00:11:50;97994.63;;;11.17;100.00
34586;BME280;20816;50.950;11.108;2022-12-26T00:14:16;97973.81;;;11.11;100.00
34586;BME280;20816;50.950;11.108;2022-12-26T00:16:44;97968.81;;;11.03;100.00
34586;BME280;20816;50.950;11.108;2022-12-26T00:19:11;97961.03;;;11.00;100.00
34586;BME280;20816;50.950;11.108;2022-12-26T00:21:38;97971.88;;;10.89;100.00
34586;BME280;20816;50.950;11.108;2022-12-26T00:24:04;97970.03;;;10.93;100.00
34586;BME280;20816;50.950;11.108;2022-12-26T00:26:32;97968.50;;;10.86;100.00
34586;BME280;20816;50.950;11.108;2022-12-26T00:28:58;97977.44;;;10.80;100.00
34586;BME280;20816;50.950;11.108;2022-12-26T00:31:27;97959.03;;;10.80;100.00
34586;BME280;20816;50.950;11.108;2022-12-26T00:33:55;97951.97;;;10.82;100.00
34586;BME280;20816;50.950;11.108;2022-12-26T00:36:27;97959.09;;;10.79;100.00
34586;BME280;20816;50.950;11.108;2022-12-26T00:38:56;97957.44;;;10.76;100.00
34586;BME280;20816;50.950;11.108;2022-12-26T00:41:23;97959.75;;;10.59;100.00
34586;BME280;20816;50.950;11.108;2022-12-26T00:43:50;97963.81;;;10.69;100.00
34586;BME280;20816;50.950;11.108;2022-12-26T00:46:17;97963.81;;;10.69;100.00
34586;BME280;20816;50.950;11.108;2022-12-26T00:48:44;97962.91;;;10.70;100.00
34586;BME280;20816;50.950;11.108;2022-12-26T00:51:10;97970.91;;;10.65;100.00
34586;BME280;20816;50.950;11.108;2022-12-26T00:53:37;97984.03;;;10.67;100.00
34586;BME280;20816;50.950;11.108;2022-12-26T00:56:04;97971.69;;;10.69;100.00
34586;BME280;20816;50.950;11.108;2022-12-26T00:58:30;97970.16;;;10.62;100.00
34586;BME280;20816;50.950;11.108;2022-12-26T01:01:09;97964.41;;;10.77;100.00
34586;BME280;20816;50.950;11.108;2022-12-26T01:03:38;97950.47;;;10.75;100.00
34586;BME280;20816;50.950;11.108;2022-12-26T01:06:05;97962.72;;;10.75;100.00
34586;BME280;20816;50.950;11.108;2022-12-26T01:08:32;97960.88;;;10.78;100.00
34586;BME280;20816;50.950;11.108;2022-12-26T01:11:03;97964.59;;;10.71;100.00
34586;BME280;20816;50.950;11.108;2022-12-26T01:13:30;97973.22;;;10.76;100.00
34586;BME280;20816;50.950;11.108;2022-12-26T01:15:57;97985.53;;;10.74;100.00
34586;BME280;20816;50.950;11.108;2022-12-26T01:18:24;97993.22;;;10.80;100.00
34586;BME280;20816;50.950;11.108;2022-12-26T01:20:50;97986.84;;;10.87;100.00
34586;BME280;20816;50.950;11.108;2022-12-26T01:23:17;97993.09;;;10.85;100.00
34586;BME280;20816;50.950;11.108;2022-12-26T01:25:44;97991.38;;;10.84;100.00
34586;BME280;20816;50.950;11.108;2022-12-26T01:28:30;97980.00;;;10.83;100.00
34586;BME280;20816;50.950;11.108;2022-12-26T01:31:03;97973.66;;;10.89;100.00
34586;BME280;20816;50.950;11.108;2022-12-26T01:33:33;97962.59;;;10.79;100.00
34586;BME280;20816;50.950;11.108;2022-12-26T01:35:59;97965.06;;;10.84;100.00
34586;BME280;20816;50.950;11.108;2022-12-26T01:38:26;97954.69;;;10.79;100.00
34586;BME280;20816;50.950;11.108;2022-12-26T01:40:53;97958.25;;;10.78;100.00
34586;BME280;20816;50.950;11.108;2022-12-26T01:46:21;97954.22;;;10.66;100.00
34586;BME280;20816;50.950;11.108;2022-12-26T01:48:50;97968.34;;;10.64;100.00
34586;BME280;20816;50.950;11.108;2022-12-26T01:51:18;97968.34;;;10.64;100.00
34586;BME280;20816;50.950;11.108;2022-12-26T01:53:48;97976.16;;;10.67;100.00
34586;BME280;20816;50.950;11.108;2022-12-26T01:56:20;97969.88;;;10.71;100.00
34586;BME280;20816;50.950;11.108;2022-12-26T01:58:52;97977.63;;;10.74;100.00
34586;BME280;20816;50.950;11.108;2022-12-26T02:01:24;97989.72;;;10.80;100.00
34586;BME280;20816;50.950;11.108;2022-12-26T02:03:53;97991.63;;;10.76;100.00
34586;BME280;20816;50.950;11.108;2022-12-26T02:06:38;97987.03;;;10.81;100.00
34586;BME280;20816;50.950;11.108;2022-12-26T02:09:07;97995.03;;;10.78;100.00
34586;BME280;20816;50.950;11.108;2022-12-26T02:11:37;97999.19;;;10.85;100.00
34586;BME280;20816;50.950;11.108;2022-12-26T02:14:06;98009.03;;;10.79;100.00
34586;BME280;20816;50.950;11.108;2022-12-26T02:16:35;98003.38;;;10.91;100.00
34586;BME280;20816;50.950;11.108;2022-12-26T02:19:04;98007.69;;;10.93;100.00
34586;BME280;20816;50.950;11.108;2022-12-26T02:24:37;98005.19;;;10.89;100.00
34586;BME280;20816;50.950;11.108;2022-12-26T02:27:41;98008.19;;;10.78;100.00
34586;BME280;20816;50.950;11.108;2022-12-26T02:30:38;97995.00;;;10.80;100.00
34586;BME280;20816;50.950;11.108;2022-12-26T02:33:32;97991.38;;;10.84;100.00
34586;BME280;20816;50.950;11.108;2022-12-26T02:41:59;98003.22;;;10.69;100.00
34586;BME280;20816;50.950;11.108;2022-12-26T02:44:43;98007.56;;;10.70;100.00
34586;BME280;20816;50.950;11.108;2022-12-26T02:48:11;97997.72;;;10.77;100.00
34586;BME280;20816;50.950;11.108;2022-12-26T02:51:12;97992.09;;;10.87;100.00
34586;BME280;20816;50.950;11.108;2022-12-26T02:54:27;97986.53;;;10.70;100.00
34586;BME280;20816;50.950;11.108;2022-12-26T02:57:19;97993.56;;;10.70;100.00
34586;BME280;20816;50.950;11.108;2022-12-26T03:00:10;97999.50;;;10.76;100.00
34586;BME280;20816;50.950;11.108;2022-12-26T03:03:06;97992.84;;;10.91;100.00
34586;BME280;20816;50.950;11.108;2022-12-26T03:06:04;97988.50;;;10.91;100.00
34586;BME280;20816;50.950;11.108;2022-12-26T03:09:17;97995.47;;;10.92;100.00
34586;BME280;20816;50.950;11.108;2022-12-26T03:12:10;98003.59;;;10.85;100.00
34586;BME280;20816;50.950;11.108;2022-12-26T03:15:00;97989.53;;;10.86;100.00
34586;BME280;20816;50.950;11.108;2022-12-26T03:17:32;97994.44;;;10.97;100.00
34586;BME280;20816;50.950;11.108;2022-12-26T03:25:10;98000.47;;;11.00;100.00
34586;BME280;20816;50.950;11.108;2022-12-26T03:27:56;98003.66;;;11.10;100.00
34586;BME280;20816;50.950;11.108;2022-12-26T03:30:23;97992.25;;;11.09;100.00
34586;BME280;20816;50.950;11.108;2022-12-26T03:33:08;97992.03;;;11.15;100.00
34586;BME280;20816;50.950;11.108;2022-12-26T03:35:55;98000.00;;;11.14;100.00
34586;BME280;20816;50.950;11.108;2022-12-26T03:38:29;98006.09;;;11.14;100.00
34586;BME280;20816;50.950;11.108;2022-12-26T03:41:09;98021.88;;;11.14;100.00
34586;BME280;20816;50.950;11.108;2022-12-26T03:47:14;98012.34;;;11.12;100.00
34586;BME280;20816;50.950;11.108;2022-12-26T03:50:06;98029.75;;;11.16;100.00
34586;BME280;20816;50.950;11.108;2022-12-26T03:53:12;98033.25;;;11.15;100.00
34586;BME280;20816;50.950;11.108;2022-12-26T03:56:09;98019.50;;;11.07;100.00
34586;BME280;20816;50.950;11.108;2022-12-26T03:59:08;98017.47;;;11.15;100.00
34586;BME280;20816;50.950;11.108;2022-12-26T04:01:56;98015.38;;;11.26;100.00
34586;BME280;20816;50.950;11.108;2022-12-26T04:04:45;98012.13;;;11.18;100.00
34586;BME280;20816;50.950;11.108;2022-12-26T04:07:32;98003.22;;;11.22;100.00
34586;BME280;20816;50.950;11.108;2022-12-26T04:10:43;98017.72;;;11.09;100.00
34586;BME280;20816;50.950;11.108;2022-12-26T04:13:45;98013.19;;;11.12;100.00
34586;BME280;20816;50.950;11.108;2022-12-26T04:16:37;98003.84;;;11.04;100.00
34586;BME280;20816;50.950;11.108;2022-12-26T04:19:36;98016.19;;;11.02;100.00
34586;BME280;20816;50.950;11.108;2022-12-26T04:22:33;98007.44;;;11.01;100.00
34586;BME280;20816;50.950;11.108;2022-12-26T04:25:25;97998.09;;;10.92;100.00
34586;BME280;20816;50.950;11.108;2022-12-26T04:28:17;97996.94;;;11.01;100.00
34586;BME280;20816;50.950;11.108;2022-12-26T04:31:08;97989.78;;;11.05;100.00
34586;BME280;20816;50.950;11.108;2022-12-26T04:34:01;98001.09;;;11.07;100.00
34586;BME280;20816;50.950;11.108;2022-12-26T04:36:54;98023.34;;;10.97;100.00
34586;BME280;20816;50.950;11.108;2022-12-26T04:39:45;98022.13;;;11.07;100.00
34586;BME280;20816;50.950;11.108;2022-12-26T04:42:33;98021.44;;;11.02;100.00
34586;BME280;20816;50.950;11.108;2022-12-26T04:45:20;98018.81;;;11.02;100.00
34586;BME280;20816;50.950;11.108;2022-12-26T04:47:48;98010.06;;;11.01;100.00
34586;BME280;20816;50.950;11.108;2022-12-26T04:50:34;98002.00;;;11.06;100.00
34586;BME280;20816;50.950;11.108;2022-12-26T04:53:00;98000.09;;;11.11;100.00
34586;BME280;20816;50.950;11.108;2022-12-26T04:55:29;98007.31;;;11.04;100.00
34586;BME280;20816;50.950;11.108;2022-12-26T04:57:56;98021.34;;;11.05;100.00
34586;BME280;20816;50.950;11.108;2022-12-26T05:00:24;98010.13;;;11.00;100.00
34586;BME280;20816;50.950;11.108;2022-12-26T05:02:51;98011.53;;;11.10;100.00
34586;BME280;20816;50.950;11.108;2022-12-26T05:05:46;98003.25;;;10.95;100.00
34586;BME280;20816;50.950;11.108;2022-12-26T05:08:35;97987.53;;;10.94;100.00
34586;BME280;20816;50.950;11.108;2022-12-26T05:11:21;97986.72;;;10.92;100.00
34586;BME280;20816;50.950;11.108;2022-12-26T05:13:55;97979.88;;;10.86;100.00
34586;BME280;20816;50.950;11.108;2022-12-26T05:16:22;97985.84;;;10.91;100.00
34586;BME280;20816;50.950;11.108;2022-12-26T05:19:12;97981.53;;;10.89;100.00
34586;BME280;20816;50.950;11.108;2022-12-26T05:21:58;97983.41;;;10.85;100.00
34586;BME280;20816;50.950;11.108;2022-12-26T05:24:45;97981.41;;;10.93;100.00
34586;BME280;20816;50.950;11.108;2022-12-26T05:27:35;97969.38;;;10.86;100.00
34586;BME280;20816;50.950;11.108;2022-12-26T05:30:21;97985.13;;;10.86;100.00
34586;BME280;20816;50.950;11.108;2022-12-26T05:32:48;97978.06;;;10.88;100.00
34586;BME280;20816;50.950;11.108;2022-12-26T05:35:34;97979.66;;;10.66;100.00
34586;BME280;20816;50.950;11.108;2022-12-26T05:38:02;97997.00;;;10.72;100.00
34586;BME280;20816;50.950;11.108;2022-12-26T05:40:29;97999.69;;;10.70;100.00
34586;BME280;20816;50.950;11.108;2022-12-26T05:42:55;98006.94;;;10.62;100.00
34586;BME280;20816;50.950;11.108;2022-12-26T05:45:22;98008.84;;;10.57;100.00
34586;BME280;20816;50.950;11.108;2022-12-26T05:47:49;98008.56;;;10.66;100.00
34586;BME280;20816;50.950;11.108;2022-12-26T05:50:17;98010.31;;;10.67;100.00
34586;BME280;20816;50.950;11.108;2022-12-26T05:52:44;98024.56;;;10.58;100.00
34586;BME280;20816;50.950;11.108;2022-12-26T05:55:11;98024.44;;;10.63;100.00
34586;BME280;20816;50.950;11.108;2022-12-26T05:57:38;98032.19;;;10.68;100.00
34586;BME280;20816;50.950;11.108;2022-12-26T06:00:05;98031.41;;;10.64;100.00
34586;BME280;20816;50.950;11.108;2022-12-26T06:02:31;98034.94;;;10.63;100.00
34586;BME280;20816;50.950;11.108;2022-12-26T06:04:58;98034.03;;;10.64;100.00
34586;BME280;20816;50.950;11.108;2022-12-26T06:07:25;98030.66;;;10.60;100.00
34586;BME280;20816;50.950;11.108;2022-12-26T06:09:52;98030.84;;;10.54;100.00
34586;BME280;20816;50.950;11.108;2022-12-26T06:12:19;98043.16;;;10.52;100.00
34586;BME280;20816;50.950;11.108;2022-12-26T06:14:45;98037.75;;;10.57;100.00
34586;BME280;20816;50.950;11.108;2022-12-26T06:17:12;98047.47;;;10.55;100.00
34586;BME280;20816;50.950;11.108;2022-12-26T06:19:39;98042.88;;;10.61;100.00
34586;BME280;20816;50.950;11.108;2022-12-26T06:22:12;98034.78;;;10.69;100.00
34586;BME280;20816;50.950;11.108;2022-12-26T06:24:38;98041.91;;;10.64;100.00
34586;BME280;20816;50.950;11.108;2022-12-26T06:27:05;98052.88;;;10.78;100.00
34586;BME280;20816;50.950;11.108;2022-12-26T06:29:31;98053.78;;;10.77;100.00
34586;BME280;20816;50.950;11.108;2022-12-26T06:31:58;98042.84;;;10.63;100.00
34586;BME280;20816;50.950;11.108;2022-12-26T06:34:24;98037.34;;;10.71;100.00
34586;BME280;20816;50.950;11.108;2022-12-26T06:36:53;98042.13;;;10.86;100.00
34586;BME280;20816;50.950;11.108;2022-12-26T06:39:21;98042.50;;;10.74;100.00
34586;BME280;20816;50.950;11.108;2022-12-26T06:41:48;98032.75;;;10.77;100.00
34586;BME280;20816;50.950;11.108;2022-12-26T06:44:15;98040.63;;;10.77;100.00
34586;BME280;20816;50.950;11.108;2022-12-26T06:46:44;98034.78;;;10.69;100.00
34586;BME280;20816;50.950;11.108;2022-12-26T06:49:11;98032.31;;;10.63;100.00
34586;BME280;20816;50.950;11.108;2022-12-26T06:51:37;98052.25;;;10.70;100.00
34586;BME280;20816;50.950;11.108;2022-12-26T06:54:04;98063.81;;;10.64;100.00
34586;BME280;20816;50.950;11.108;2022-12-26T06:56:31;98052.88;;;10.78;100.00
34586;BME280;20816;50.950;11.108;2022-12-26T06:59:00;98073.38;;;10.67;100.00
34586;BME280;20816;50.950;11.108;2022-12-26T07:01:29;98073.16;;;10.73;100.00
34586;BME280;20816;50.950;11.108;2022-12-26T07:03:57;98069.16;;;10.89;100.00
34586;BME280;20816;50.950;11.108;2022-12-26T07:06:29;98074.63;;;10.83;100.00
34586;BME280;20816;50.950;11.108;2022-12-26T07:11:34;98069.16;;;10.89;100.00
34586;BME280;20816;50.950;11.108;2022-12-26T07:14:01;98084.94;;;10.89;100.00
34586;BME280;20816;50.950;11.108;2022-12-26T07:16:28;98089.38;;;10.87;100.00
34586;BME280;20816;50.950;11.108;2022-12-26T07:18:55;98093.91;;;10.82;100.00
34586;BME280;20816;50.950;11.108;2022-12-26T07:21:23;98094.03;;;10.79;100.00
34586;BME280;20816;50.950;11.108;2022-12-26T07:23:51;98096.41;;;10.87;100.00
34586;BME280;20816;50.950;11.108;2022-12-26T07:26:18;98099.56;;;10.98;100.00
34586;BME280;20816;50.950;11.108;2022-12-26T07:28:47;98093.44;;;10.98;100.00
34586;BME280;20816;50.950;11.108;2022-12-26T07:31:16;98086.56;;;10.93;100.00
34586;BME280;20816;50.950;11.108;2022-12-26T07:33:47;98074.34;;;10.92;100.00
34586;BME280;20816;50.950;11.108;2022-12-26T07:36:14;98093.72;;;10.88;100.00
34586;BME280;20816;50.950;11.108;2022-12-26T07:38:40;98109.31;;;10.94;100.00
34586;BME280;20816;50.950;11.108;2022-12-26T07:41:09;98105.88;;;10.92;100.00
34586;BME280;20816;50.950;11.108;2022-12-26T07:44:08;98111.22;;;10.89;100.00
34586;BME280;20816;50.950;11.108;2022-12-26T07:46:34;98094.28;;;11.00;100.00
34586;BME280;20816;50.950;11.108;2022-12-26T07:49:02;98110.66;;;11.08;100.00
34586;BME280;20816;50.950;11.108;2022-12-26T07:51:28;98106.28;;;11.08;100.00
34586;BME280;20816;50.950;11.108;2022-12-26T07:53:55;98093.16;;;11.07;100.00
34586;BME280;20816;50.950;11.108;2022-12-26T07:56:22;98082.53;;;11.10;100.00
34586;BME280;20816;50.950;11.108;2022-12-26T07:58:49;98090.28;;;11.14;100.00
34586;BME280;20816;50.950;11.108;2022-12-26T08:01:16;98091.13;;;11.15;100.00
34586;BME280;20816;50.950;11.108;2022-12-26T08:03:43;98093.50;;;11.22;100.00
34586;BME280;20816;50.950;11.108;2022-12-26T08:06:10;98095.19;;;11.25;100.00
34586;BME280;20816;50.950;11.108;2022-12-26T08:08:37;98099.56;;;11.26;100.00
34586;BME280;20816;50.950;11.108;2022-12-26T08:11:06;98089.03;;;11.26;100.00
34586;BME280;20816;50.950;11.108;2022-12-26T08:13:33;98090.19;;;11.17;100.00
34586;BME280;20816;50.950;11.108;2022-12-26T08:16:08;98101.63;;;11.16;100.00
34586;BME280;20816;50.950;11.108;2022-12-26T08:18:35;98089.34;;;11.17;100.00
34586;BME280;20816;50.950;11.108;2022-12-26T08:21:02;98085.59;;;11.24;100.00
34586;BME280;20816;50.950;11.108;2022-12-26T08:23:29;98083.84;;;11.23;100.00
34586;BME280;20816;50.950;11.108;2022-12-26T08:25:55;98080.59;;;11.15;100.00
34586;BME280;20816;50.950;11.108;2022-12-26T08:28:22;98080.53;;;11.18;100.00
34586;BME280;20816;50.950;11.108;2022-12-26T08:30:49;98086.53;;;11.21;100.00
34586;BME280;20816;50.950;11.108;2022-12-26T08:33:15;98090.84;;;11.24;100.00
34586;BME280;20816;50.950;11.108;2022-12-26T08:35:42;98101.16;;;11.30;100.00
34586;BME280;20816;50.950;11.108;2022-12-26T08:38:09;98098.75;;;11.24;100.00
34586;BME280;20816;50.950;11.108;2022-12-26T08:40:37;98108.34;;;11.25;100.00
34586;BME280;20816;50.950;11.108;2022-12-26T08:43:10;98108.13;;;11.31;100.00
34586;BME280;20816;50.950;11.108;2022-12-26T08:45:59;98095.16;;;11.27;100.00
34586;BME280;20816;50.950;11.108;2022-12-26T08:48:26;98107.94;;;11.37;100.00
34586;BME280;20816;50.950;11.108;2022-12-26T08:51:10;98094.53;;;11.45;100.00
34586;BME280;20816;50.950;11.108;2022-12-26T08:53:38;98109.47;;;11.44;100.00
34586;BME280;20816;50.950;11.108;2022-12-26T08:56:10;98108.75;;;11.39;100.00
34586;BME280;20816;50.950;11.108;2022-12-26T08:58:38;98122.44;;;11.50;100.00
34586;BME280;20816;50.950;11.108;2022-12-26T09:03:36;98131.44;;;11.43;100.00
34586;BME280;20816;50.950;11.108;2022-12-26T09:06:03;98130.50;;;11.44;100.00
34586;BME280;20816;50.950;11.108;2022-12-26T09:08:33;98123.66;;;11.40;100.00
34586;BME280;20816;50.950;11.108;2022-12-26T09:11:02;98136.06;;;11.35;100.00
34586;BME280;20816;50.950;11.108;2022-12-26T09:13:29;98132.53;;;11.36;100.00
34586;BME280;20816;50.950;11.108;2022-12-26T09:16:03;98133.59;;;11.31;100.00
34586;BME280;20816;50.950;11.108;2022-12-26T09:18:30;98137.69;;;11.39;100.00
34586;BME280;20816;50.950;11.108;2022-12-26T09:21:01;98144.41;;;11.49;100.00
34586;BME280;20816;50.950;11.108;2022-12-26T09:23:28;98148.88;;;11.46;100.00
34586;BME280;20816;50.950;11.108;2022-12-26T09:25:55;98140.19;;;11.44;100.00
34586;BME280;20816;50.950;11.108;2022-12-26T09:28:21;98134.78;;;11.48;100.00
34586;BME280;20816;50.950;11.108;2022-12-26T09:30:48;98124.28;;;11.47;100.00
34586;BME280;20816;50.950;11.108;2022-12-26T09:33:14;98134.00;;;11.45;100.00
34586;BME280;20816;50.950;11.108;2022-12-26T09:35:44;98134.81;;;11.47;100.00
34586;BME280;20816;50.950;11.108;2022-12-26T09:38:11;98125.06;;;11.50;100.00
34586;BME280;20816;50.950;11.108;2022-12-26T09:43:27;98130.00;;;11.60;100.00
34586;BME280;20816;50.950;11.108;2022-12-26T09:46:37;98146.78;;;11.57;100.00
34586;BME280;20816;50.950;11.108;2022-12-26T09:49:05;98127.25;;;11.63;100.00
34586;BME280;20816;50.950;11.108;2022-12-26T09:51:39;98132.53;;;11.63;100.00
34586;BME280;20816;50.950;11.108;2022-12-26T09:54:15;98147.72;;;11.55;100.00
34586;BME280;20816;50.950;11.108;2022-12-26T09:56:45;98144.84;;;11.62;100.00
34586;BME280;20816;50.950;11.108;2022-12-26T09:59:30;98149.53;;;11.52;100.00
34586;BME280;20816;50.950;11.108;2022-12-26T10:01:58;98147.47;;;11.62;100.00
34586;BME280;20816;50.950;11.108;2022-12-26T10:04:32;98137.13;;;11.56;100.00
34586;BME280;20816;50.950;11.108;2022-12-26T10:07:26;98147.22;;;11.70;100.00
34586;BME280;20816;50.950;11.108;2022-12-26T10:10:12;98161.41;;;11.66;100.00
34586;BME280;20816;50.950;11.108;2022-12-26T10:12:56;98162.50;;;11.59;100.00
34586;BME280;20816;50.950;11.108;2022-12-26T10:15:47;98152.91;;;11.58;100.00
34586;BME280;20816;50.950;11.108;2022-12-26T10:21:27;98149.03;;;11.41;100.00
34586;BME280;20816;50.950;11.108;2022-12-26T10:24:17;98169.19;;;11.42;100.00
34586;BME280;20816;50.950;11.108;2022-12-26T10:26:52;98201.47;;;10.90;100.00
34586;BME280;20816;50.950;11.108;2022-12-26T10:29:25;98212.25;;;10.50;100.00
34586;BME280;20816;50.950;11.108;2022-12-26T10:31:57;98223.59;;;10.19;100.00
34586;BME280;20816;50.950;11.108;2022-12-26T10:34:34;98223.31;;;9.96;100.00
34586;BME280;20816;50.950;11.108;2022-12-26T10:39:54;98243.56;;;9.91;100.00
34586;BME280;20816;50.950;11.108;2022-12-26T10:42:33;98241.03;;;9.88;100.00
34586;BME280;20816;50.950;11.108;2022-12-26T10:45:03;98241.94;;;9.87;100.00
34586;BME280;20816;50.950;11.108;2022-12-26T10:47:39;98235.28;;;9.72;100.00
34586;BME280;20816;50.950;11.108;2022-12-26T10:50:15;98229.75;;;9.82;100.00
34586;BME280;20816;50.950;11.108;2022-12-26T10:52:42;98230.09;;;9.70;100.00
34586;BME280;20816;50.950;11.108;2022-12-26T10:55:19;98217.88;;;9.69;100.00
34586;BME280;20816;50.950;11.108;2022-12-26T10:58:10;98222.84;;;9.43;100.00
34586;BME280;20816;50.950;11.108;2022-12-26T11:00:40;98224.56;;;9.45;100.00
34586;BME280;20816;50.950;11.108;2022-12-26T11:03:09;98234.31;;;9.39;100.00
34586;BME280;20816;50.950;11.108;2022-12-26T11:05:42;98241.28;;;9.40;100.00
34586;BME280;20816;50.950;11.108;2022-12-26T11:08:34;98239.00;;;9.24;100.00
34586;BME280;20816;50.950;11.108;2022-12-26T11:11:19;98242.53;;;9.23;100.00
34586;BME280;20816;50.950;11.108;2022-12-26T11:13:53;98237.22;;;9.26;100.00
34586;BME280;20816;50.950;11.108;2022-12-26T11:16:32;98241.53;;;9.27;100.00
34586;BME280;20816;50.950;11.108;2022-12-26T11:19:00;98246.19;;;9.16;100.00
34586;BME280;20816;50.950;11.108;2022-12-26T11:21:28;98255.84;;;9.14;100.00
34586;BME280;20816;50.950;11.108;2022-12-26T11:24:17;98253.22;;;9.14;100.00
34586;BME280;20816;50.950;11.108;2022-12-26T11:26:47;98243.69;;;9.10;100.00
34586;BME280;20816;50.950;11.108;2022-12-26T11:29:17;98236.59;;;9.15;100.00
34586;BME280;20816;50.950;11.108;2022-12-26T11:31:53;98248.94;;;9.10;100.00
34586;BME280;20816;50.950;11.108;2022-12-26T11:34:54;98231.38;;;9.14;100.00
34586;BME280;20816;50.950;11.108;2022-12-26T11:37:27;98217.41;;;9.13;100.00
34586;BME280;20816;50.950;11.108;2022-12-26T11:40:03;98217.41;;;9.13;100.00
34586;BME280;20816;50.950;11.108;2022-12-26T11:42:30;98209.44;;;9.18;100.00
34586;BME280;20816;50.950;11.108;2022-12-26T11:44:59;98208.44;;;9.23;100.00
34586;BME280;20816;50.950;11.108;2022-12-26T11:47:29;98208.47;;;9.22;100.00
34586;BME280;20816;50.950;11.108;2022-12-26T11:50:15;98204.91;;;9.24;100.00
34586;BME280;20816;50.950;11.108;2022-12-26T12:00:27;98223.84;;;9.39;100.00
34586;BME280;20816;50.950;11.108;2022-12-26T12:03:13;98223.69;;;9.45;100.00
34586;BME280;20816;50.950;11.108;2022-12-26T12:06:00;98227.28;;;9.41;100.00
34586;BME280;20816;50.950;11.108;2022-12-26T12:08:43;98221.94;;;9.45;100.00
34586;BME280;20816;50.950;11.108;2022-12-26T12:11:24;98200.72;;;9.54;100.00
34586;BME280;20816;50.950;11.108;2022-12-26T12:16:51;98202.53;;;9.51;100.00
34586;BME280;20816;50.950;11.108;2022-12-26T12:19:53;98205.94;;;9.56;100.00
34586;BME280;20816;50.950;11.108;2022-12-26T12:25:31;98204.88;;;9.63;100.00
34586;BME280;20816;50.950;11.108;2022-12-26T12:30:49;98208.06;;;9.76;100.00
34586;BME280;20816;50.950;11.108;2022-12-26T12:33:34;98203.78;;;9.72;100.00
34586;BME280;20816;50.950;11.108;2022-12-26T12:36:14;98197.63;;;9.73;100.00
34586;BME280;20816;50.950;11.108;2022-12-26T12:38:54;98199.84;;;9.90;100.00
34586;BME280;20816;50.950;11.108;2022-12-26T12:44:12;98182.22;;;9.95;100.00
34586;BME280;20816;50.950;11.108;2022-12-26T12:58:05;98187.78;;;10.15;100.00
34586;BME280;20816;50.950;11.108;2022-12-26T13:00:51;98186.22;;;10.08;100.00
34586;BME280;20816;50.950;11.108;2022-12-26T13:03:45;98182.59;;;10.14;100.00
34586;BME280;20816;50.950;11.108;2022-12-26T13:06:21;98176.47;;;10.13;100.00
34586;BME280;20816;50.950;11.108;2022-12-26T13:09:02;98182.59;;;10.14;100.00
34586;BME280;20816;50.950;11.108;2022-12-26T13:11:41;98173.41;;;10.30;100.00
34586;BME280;20816;50.950;11.108;2022-12-26T13:14:22;98173.66;;;10.21;100.00
34586;BME280;20816;50.950;11.108;2022-12-26T13:17:01;98173.72;;;10.18;100.00
34586;BME280;20816;50.950;11.108;2022-12-26T13:19:40;98169.94;;;10.29;100.00
34586;BME280;20816;50.950;11.108;2022-12-26T13:22:26;98176.16;;;10.27;100.00
34586;BME280;20816;50.950;11.108;2022-12-26T13:25:17;98171.88;;;10.21;100.00
34586;BME280;20816;50.950;11.108;2022-12-26T13:27:47;98172.03;;;10.15;100.00
34586;BME280;20816;50.950;11.108;2022-12-26T13:30:16;98169.13;;;10.26;100.00
34586;BME280;20816;50.950;11.108;2022-12-26T13:32:43;98164.78;;;10.26;100.00
34586;BME280;20816;50.950;11.108;2022-12-26T13:35:50;98165.50;;;10.31;100.00
34586;BME280;20816;50.950;11.108;2022-12-26T13:41:05;98161.91;;;10.34;100.00
34586;BME280;20816;50.950;11.108;2022-12-26T13:44:06;98155.16;;;10.25;100.00
34586;BME280;20816;50.950;11.108;2022-12-26T13:49:31;98147.84;;;10.36;100.00
34586;BME280;20816;50.950;11.108;2022-12-26T13:57:42;98174.03;;;10.39;100.00
34586;BME280;20816;50.950;11.108;2022-12-26T14:00:24;98166.94;;;10.42;100.00
34586;BME280;20816;50.950;11.108;2022-12-26T14:06:27;98164.09;;;10.51;100.00
34586;BME280;20816;50.950;11.108;2022-12-26T14:09:05;98165.97;;;10.46;100.00
34586;BME280;20816;50.950;11.108;2022-12-26T14:12:20;98160.84;;;10.41;100.00
34586;BME280;20816;50.950;11.108;2022-12-26T14:25:21;98150.91;;;10.20;100.00
34586;BME280;20816;50.950;11.108;2022-12-26T14:30:32;98152.63;;;10.21;100.00
34586;BME280;20816;50.950;11.108;2022-12-26T14:38:45;98162.28;;;10.20;100.00
34586;BME280;20816;50.950;11.108;2022-12-26T14:41:15;98160.56;;;10.19;100.00
34586;BME280;20816;50.950;11.108;2022-12-26T14:47:03;98175.53;;;10.16;100.00
34586;BME280;20816;50.950;11.108;2022-12-26T14:52:26;98177.44;;;10.09;100.00
34586;BME280;20816;50.950;11.108;2022-12-26T14:55:34;98173.91;;;10.11;100.00
34586;BME280;20816;50.950;11.108;2022-12-26T14:58:26;98177.34;;;10.14;100.00
34586;BME280;20816;50.950;11.108;2022-12-26T15:00:56;98178.28;;;10.11;100.00
34586;BME280;20816;50.950;11.108;2022-12-26T15:06:56;98188.69;;;10.14;100.00
34586;BME280;20816;50.950;11.108;2022-12-26T15:17:36;98179.88;;;10.17;100.00
34586;BME280;20816;50.950;11.108;2022-12-26T15:23:06;98179.66;;;9.92;100.00